Time;durP1;ratioP1;P1;durP2;ratioP2;P2;SDS_P1;SDS_P2;PMS_P1;PMS_P2;Temp;Humidity;BMP_temperature;BMP_pressure;BME280_temperature;BME280_humidity;BME280_pressure;Samples;Min_cycle;Max_cycle;Signal;HPM_P1;HPM_P2
2021/07/17 00:00:29;;;;;;;26.25;19.63;;;18.10;99.90;;;;;;4980369;28;20117;-85
2021/07/17 00:02:55;;;;;;;24.02;18.13;;;18.00;99.90;;;;;;4980454;28;20073;-85
2021/07/17 00:05:22;;;;;;;26.17;19.95;;;18.00;99.90;;;;;;4980742;28;20080;-85
2021/07/17 00:07:48;;;;;;;32.22;19.83;;;18.10;99.90;;;;;;4980277;28;20030;-85
2021/07/17 00:10:16;;;;;;;31.30;18.95;;;18.10;99.90;;;;;;4980541;28;20031;-85
2021/07/17 00:12:43;;;;;;;28.42;18.35;;;18.10;99.90;;;;;;4980263;28;20027;-85
2021/07/17 00:15:12;;;;;;;28.52;19.27;;;18.00;99.90;;;;;;4980175;28;20030;-85
2021/07/17 00:17:38;;;;;;;23.80;18.08;;;18.10;99.90;;;;;;4980099;28;20052;-84
2021/07/17 00:20:10;;;;;;;31.00;21.30;;;18.10;99.90;;;;;;4997530;28;20080;-85
2021/07/17 00:22:36;;;;;;;32.83;20.65;;;18.10;99.90;;;;;;4997489;28;20101;-85
2021/07/17 00:25:04;;;;;;;28.65;18.95;;;18.10;99.90;;;;;;4980082;28;20080;-85
2021/07/17 00:27:30;;;;;;;30.20;20.90;;;18.10;99.90;;;;;;4979961;28;20019;-86
2021/07/17 00:29:56;;;;;;;29.65;18.23;;;18.10;99.90;;;;;;4997408;28;20081;-85
2021/07/17 00:32:21;;;;;;;37.75;24.13;;;18.10;99.90;;;;;;4979886;28;20100;-85
2021/07/17 00:34:47;;;;;;;32.60;21.45;;;18.10;99.90;;;;;;4979812;28;20113;-85
2021/07/17 00:37:13;;;;;;;34.30;22.58;;;18.10;99.90;;;;;;4979715;28;20046;-86
2021/07/17 00:39:38;;;;;;;30.77;18.88;;;18.00;99.90;;;;;;4979700;28;20058;-85
2021/07/17 00:42:04;;;;;;;40.53;25.85;;;18.00;99.90;;;;;;4979735;28;20375;-85
2021/07/17 00:44:30;;;;;;;36.05;22.55;;;18.00;99.90;;;;;;4979621;28;20478;-86
2021/07/17 00:46:58;;;;;;;37.60;24.58;;;18.00;99.90;;;;;;4995794;28;20026;-86
2021/07/17 00:49:28;;;;;;;43.63;26.05;;;18.00;99.90;;;;;;4979550;28;20499;-85
2021/07/17 00:51:54;;;;;;;38.22;25.58;;;17.90;99.90;;;;;;4997262;28;20427;-85
2021/07/17 00:54:20;;;;;;;33.33;23.13;;;17.90;99.90;;;;;;4979471;28;20058;-85
2021/07/17 00:56:48;;;;;;;34.15;24.80;;;18.00;99.90;;;;;;4979689;28;20041;-85
2021/07/17 00:59:17;;;;;;;30.05;22.67;;;17.90;99.90;;;;;;4979567;28;20109;-85
2021/07/17 01:01:43;;;;;;;33.75;22.80;;;17.90;99.90;;;;;;4997092;28;20018;-85
2021/07/17 01:04:09;;;;;;;42.60;26.17;;;17.80;99.90;;;;;;4996769;28;20486;-85
2021/07/17 01:06:35;;;;;;;39.58;24.13;;;17.90;99.90;;;;;;4978161;28;20530;-85
2021/07/17 01:09:01;;;;;;;41.80;23.52;;;17.80;99.90;;;;;;4979447;28;20117;-85
2021/07/17 01:11:26;;;;;;;40.33;26.52;;;17.90;99.90;;;;;;4979173;28;20053;-85
2021/07/17 01:13:52;;;;;;;39.42;26.77;;;17.70;99.90;;;;;;4979121;28;20524;-85
2021/07/17 01:16:18;;;;;;;32.63;22.63;;;17.70;99.90;;;;;;4979084;28;20363;-85
2021/07/17 01:18:44;;;;;;;42.80;26.02;;;17.70;99.90;;;;;;4996394;28;20466;-86
2021/07/17 01:21:18;;;;;;;35.33;23.60;;;17.80;99.90;;;;;;4996454;28;20050;-85
2021/07/17 01:23:44;;;;;;;46.20;25.73;;;17.70;99.90;;;;;;4978997;28;20022;-85
2021/07/17 01:26:11;;;;;;;30.38;21.60;;;17.80;99.90;;;;;;4978855;28;20128;-85
2021/07/17 01:28:38;;;;;;;29.63;21.15;;;17.90;99.90;;;;;;4979106;28;20045;-85
2021/07/17 01:31:04;;;;;;;33.47;21.50;;;18.00;99.90;;;;;;4978793;28;20022;-85
2021/07/17 01:33:30;;;;;;;33.88;23.13;;;17.90;99.90;;;;;;4978742;28;20026;-85
2021/07/17 01:35:56;;;;;;;35.38;23.70;;;17.80;99.90;;;;;;4994664;28;20456;-85
2021/07/17 01:38:21;;;;;;;33.55;22.48;;;17.80;99.90;;;;;;4979262;28;20066;-85
2021/07/17 01:40:48;;;;;;;29.38;20.58;;;17.80;99.90;;;;;;4978618;28;20030;-86
2021/07/17 01:43:14;;;;;;;36.03;22.73;;;17.90;99.90;;;;;;4996335;28;20018;-85
2021/07/17 01:45:40;;;;;;;30.65;21.23;;;17.80;99.90;;;;;;4978569;28;20072;-85
2021/07/17 01:48:09;;;;;;;38.70;23.88;;;17.80;99.90;;;;;;4994771;28;20224;-85
2021/07/17 01:50:36;;;;;;;38.67;21.80;;;17.80;99.90;;;;;;4978448;28;20134;-85
2021/07/17 01:53:04;;;;;;;33.15;21.90;;;17.80;99.90;;;;;;4978405;28;20076;-85
2021/07/17 01:55:30;;;;;;;31.35;20.42;;;17.80;99.90;;;;;;4978418;28;20593;-85
2021/07/17 01:57:56;;;;;;;33.38;22.35;;;18.00;99.90;;;;;;4978412;28;20035;-86
2021/07/17 02:00:22;;;;;;;31.00;20.88;;;17.90;99.90;;;;;;4995660;28;20394;-85
2021/07/17 02:02:49;;;;;;;29.67;20.50;;;18.00;99.90;;;;;;4978247;28;20024;-86
2021/07/17 02:05:16;;;;;;;28.88;20.40;;;17.90;99.90;;;;;;4996274;28;20049;-85
2021/07/17 02:07:46;;;;;;;35.47;22.90;;;18.00;99.90;;;;;;4978748;28;20031;-85
2021/07/17 02:10:14;;;;;;;28.23;20.48;;;18.00;99.90;;;;;;4978210;28;20031;-85
2021/07/17 02:12:58;;;;;;;24.27;18.52;;;17.90;99.90;;;;;;4978132;28;20101;-85
2021/07/17 02:15:24;;;;;;;30.47;20.20;;;18.00;99.90;;;;;;4996109;28;20046;-85
2021/07/17 02:17:50;;;;;;;30.48;21.27;;;18.00;99.90;;;;;;4977693;28;20027;-85
2021/07/17 02:20:16;;;;;;;32.85;20.77;;;18.00;99.90;;;;;;4977877;28;20037;-85
2021/07/17 02:22:42;;;;;;;29.08;19.88;;;18.00;99.90;;;;;;4977846;28;20057;-85
2021/07/17 02:25:08;;;;;;;31.75;20.15;;;17.90;99.90;;;;;;4977829;28;20057;-85
2021/07/17 02:27:34;;;;;;;30.45;21.13;;;17.90;99.90;;;;;;4993962;28;20026;-85
2021/07/17 02:30:00;;;;;;;34.15;22.73;;;17.70;99.90;;;;;;4995197;28;20026;-85
2021/07/17 02:32:26;;;;;;;37.33;24.65;;;17.70;99.90;;;;;;4977680;28;20030;-85
2021/07/17 02:34:51;;;;;;;33.45;22.77;;;17.80;99.90;;;;;;4993771;28;20031;-85
2021/07/17 02:37:17;;;;;;;36.03;25.38;;;17.80;99.90;;;;;;4977205;28;20056;-85
2021/07/17 02:39:43;;;;;;;36.60;22.92;;;17.80;99.90;;;;;;4977426;28;20034;-85
2021/07/17 02:42:10;;;;;;;40.97;26.10;;;17.90;99.90;;;;;;4977435;28;20022;-85
2021/07/17 02:44:35;;;;;;;36.17;23.98;;;17.90;99.90;;;;;;4977455;28;20030;-85
2021/07/17 02:47:01;;;;;;;32.65;21.45;;;17.80;99.90;;;;;;4977438;28;20390;-85
2021/07/17 02:49:27;;;;;;;34.85;23.85;;;17.80;99.90;;;;;;4977340;28;20077;-85
2021/07/17 02:51:55;;;;;;;33.33;21.90;;;17.80;99.90;;;;;;4977352;28;20394;-85
2021/07/17 02:54:21;;;;;;;30.75;21.33;;;17.70;99.90;;;;;;4993463;28;20026;-85
2021/07/17 02:56:46;;;;;;;34.65;22.65;;;17.70;99.90;;;;;;4977201;28;20040;-85
2021/07/17 02:59:12;;;;;;;40.30;26.10;;;17.70;99.90;;;;;;4977060;28;20113;-85
2021/07/17 03:01:38;;;;;;;39.67;23.65;;;17.80;99.90;;;;;;4977192;28;20389;-85
2021/07/17 03:04:04;;;;;;;41.35;24.80;;;17.80;99.90;;;;;;4977420;28;20026;-85
2021/07/17 03:06:29;;;;;;;33.28;24.55;;;17.80;99.90;;;;;;4994524;28;20026;-85
2021/07/17 03:08:55;;;;;;;32.65;22.95;;;17.70;99.90;;;;;;4976998;28;20022;-85
2021/07/17 03:11:21;;;;;;;40.72;25.25;;;17.80;99.90;;;;;;4976984;28;20033;-85
2021/07/17 03:13:47;;;;;;;37.53;24.20;;;17.80;99.90;;;;;;4994701;28;20362;-85
2021/07/17 03:16:15;;;;;;;37.42;23.73;;;17.70;99.90;;;;;;4976903;28;20026;-85
2021/07/17 03:18:41;;;;;;;38.63;25.40;;;17.70;99.90;;;;;;4976887;28;20482;-85
2021/07/17 03:21:07;;;;;;;39.80;24.13;;;17.80;99.90;;;;;;4976757;28;20041;-85
2021/07/17 03:23:32;;;;;;;44.58;27.45;;;17.70;99.90;;;;;;4976812;28;20027;-85
2021/07/17 03:25:58;;;;;;;40.15;25.48;;;17.70;99.90;;;;;;4976840;28;20113;-85
2021/07/17 03:28:24;;;;;;;37.38;24.58;;;17.60;99.90;;;;;;4976542;28;20023;-85
2021/07/17 03:30:49;;;;;;;39.40;24.40;;;17.60;99.90;;;;;;4976475;28;20031;-85
2021/07/17 03:33:15;;;;;;;36.80;23.10;;;17.60;99.90;;;;;;4994406;28;20030;-86
2021/07/17 03:35:41;;;;;;;37.35;23.85;;;17.70;99.90;;;;;;4992795;28;20027;-85
2021/07/17 03:38:06;;;;;;;35.30;22.23;;;17.70;99.90;;;;;;4992638;28;20077;-85
2021/07/17 03:40:32;;;;;;;34.35;22.63;;;17.70;99.90;;;;;;4976556;28;20022;-85
2021/07/17 03:42:58;;;;;;;32.03;20.85;;;17.70;99.90;;;;;;4976611;28;20105;-85
2021/07/17 03:45:24;;;;;;;38.60;25.02;;;17.70;99.90;;;;;;4976561;28;20049;-85
2021/07/17 03:47:50;;;;;;;30.88;21.27;;;17.60;99.90;;;;;;4976592;28;20023;-85
2021/07/17 03:50:15;;;;;;;36.53;22.83;;;17.60;99.90;;;;;;4976584;28;20027;-85
2021/07/17 03:52:41;;;;;;;37.00;24.00;;;17.70;99.90;;;;;;4993863;28;20022;-85
2021/07/17 03:55:07;;;;;;;27.67;21.33;;;17.60;99.90;;;;;;4976446;28;20562;-85
2021/07/17 03:57:33;;;;;;;33.00;22.05;;;17.80;99.90;;;;;;4976414;28;20026;-85
2021/07/17 03:59:59;;;;;;;32.35;22.20;;;17.80;99.90;;;;;;4976343;28;20137;-85
2021/07/17 04:02:26;;;;;;;34.08;23.00;;;17.80;99.90;;;;;;4976280;28;20025;-85
2021/07/17 04:04:51;;;;;;;36.15;24.83;;;17.70;99.90;;;;;;4976415;28;20030;-85
2021/07/17 04:07:17;;;;;;;33.17;24.20;;;17.60;99.90;;;;;;4976398;28;20064;-85
2021/07/17 04:09:43;;;;;;;37.33;24.92;;;17.70;99.90;;;;;;4976342;28;20026;-85
2021/07/17 04:12:09;;;;;;;38.38;24.08;;;17.70;99.90;;;;;;4976358;28;20100;-85
2021/07/17 04:14:35;;;;;;;35.05;24.80;;;17.60;99.90;;;;;;4993682;28;20102;-85
2021/07/17 04:17:01;;;;;;;34.88;23.42;;;17.60;99.90;;;;;;4992401;28;20030;-86
2021/07/17 04:19:26;;;;;;;37.45;23.73;;;17.60;99.90;;;;;;4992547;28;20098;-85
2021/07/17 04:21:52;;;;;;;38.45;25.05;;;17.70;99.90;;;;;;4976629;28;20114;-85
2021/07/17 04:24:18;;;;;;;35.80;23.00;;;17.70;99.90;;;;;;4976395;28;20536;-85
2021/07/17 04:26:43;;;;;;;37.22;23.15;;;17.70;99.90;;;;;;4976129;28;20031;-85
2021/07/17 04:29:09;;;;;;;32.60;23.13;;;17.70;99.90;;;;;;4976195;28;20022;-85
2021/07/17 04:31:35;;;;;;;34.65;22.98;;;17.80;99.90;;;;;;4976108;28;20068;-85
2021/07/17 04:34:00;;;;;;;35.10;24.23;;;17.90;99.90;;;;;;4976671;28;20027;-85
2021/07/17 04:36:26;;;;;;;40.88;24.95;;;17.90;99.90;;;;;;4992008;28;20134;-85
2021/07/17 04:38:52;;;;;;;31.95;21.95;;;17.80;99.90;;;;;;4975980;28;20023;-85
2021/07/17 04:41:17;;;;;;;32.30;21.33;;;17.80;99.90;;;;;;4978517;28;20146;-86
2021/07/17 04:43:43;;;;;;;37.08;23.13;;;17.80;99.90;;;;;;4979990;28;20073;-85
2021/07/17 04:46:09;;;;;;;38.25;25.08;;;17.70;99.90;;;;;;4995859;28;20026;-85
2021/07/17 04:48:34;;;;;;;40.00;26.00;;;17.70;99.90;;;;;;4995795;28;20023;-85
2021/07/17 04:51:00;;;;;;;30.80;20.50;;;17.70;99.90;;;;;;4979493;28;20060;-85
2021/07/17 04:53:26;;;;;;;33.63;20.85;;;17.70;99.90;;;;;;4994324;28;20462;-85
2021/07/17 04:55:52;;;;;;;34.58;21.75;;;17.80;99.90;;;;;;4978689;28;20117;-85
2021/07/17 04:58:18;;;;;;;30.13;19.08;;;17.90;99.90;;;;;;4979401;28;20080;-85
2021/07/17 05:00:44;;;;;;;30.80;20.88;;;17.90;99.90;;;;;;4995501;28;20023;-85
2021/07/17 05:03:09;;;;;;;27.77;19.85;;;17.90;99.90;;;;;;4979405;28;20076;-85
2021/07/17 05:05:35;;;;;;;35.33;20.63;;;17.90;99.90;;;;;;4996761;28;20022;-85
2021/07/17 05:08:01;;;;;;;31.65;20.17;;;17.80;99.90;;;;;;4979297;28;20085;-85
2021/07/17 05:10:27;;;;;;;32.75;20.85;;;17.80;99.90;;;;;;4979217;28;20037;-85
2021/07/17 05:12:53;;;;;;;34.33;21.35;;;17.90;99.90;;;;;;4979109;28;20509;-85
2021/07/17 05:15:19;;;;;;;29.85;20.13;;;17.80;99.90;;;;;;4979147;28;20026;-85
2021/07/17 05:17:45;;;;;;;33.03;20.25;;;17.80;99.90;;;;;;4979069;28;20058;-85
2021/07/17 05:20:12;;;;;;;35.95;21.50;;;17.80;99.90;;;;;;4995234;28;20112;-85
2021/07/17 05:22:38;;;;;;;30.83;21.23;;;17.70;99.90;;;;;;4996392;28;20022;-85
2021/07/17 05:25:05;;;;;;;30.33;19.85;;;17.80;99.90;;;;;;4996391;28;20038;-85
2021/07/17 05:27:30;;;;;;;25.65;19.63;;;17.70;99.90;;;;;;4978830;28;20027;-85
2021/07/17 05:29:56;;;;;;;34.63;20.60;;;17.70;99.90;;;;;;4996248;28;20026;-85
2021/07/17 05:32:22;;;;;;;31.08;19.50;;;17.70;99.90;;;;;;4978659;28;20037;-85
2021/07/17 05:34:47;;;;;;;34.67;20.73;;;17.80;99.90;;;;;;4994830;28;20069;-85
2021/07/17 05:37:13;;;;;;;30.95;20.40;;;17.80;99.90;;;;;;4978489;28;20050;-85
2021/07/17 05:39:39;;;;;;;24.65;18.05;;;17.80;99.90;;;;;;4978663;28;20397;-85
2021/07/17 05:42:05;;;;;;;27.45;18.67;;;17.90;99.90;;;;;;4978547;28;20050;-85
2021/07/17 05:44:32;;;;;;;24.90;18.17;;;18.00;99.90;;;;;;4996027;28;20440;-85
2021/07/17 05:46:58;;;;;;;34.28;19.08;;;18.10;99.90;;;;;;4978523;28;20082;-85
2021/07/17 05:49:24;;;;;;;28.60;17.40;;;18.20;99.90;;;;;;4978553;28;20026;-85
2021/07/17 05:51:50;;;;;;;28.20;18.00;;;18.00;99.90;;;;;;4978061;28;20036;-85
2021/07/17 05:54:16;;;;;;;28.52;17.42;;;18.10;99.90;;;;;;4978446;28;20026;-85
2021/07/17 05:56:42;;;;;;;27.15;18.52;;;18.10;99.90;;;;;;4995827;28;20051;-85
2021/07/17 05:59:08;;;;;;;24.13;17.38;;;18.10;99.90;;;;;;4978257;28;20522;-85
2021/07/17 06:01:33;;;;;;;28.63;16.75;;;18.10;99.90;;;;;;4978265;28;20389;-85
2021/07/17 06:04:01;;;;;;;27.42;18.02;;;18.10;99.90;;;;;;4995592;28;20058;-85
2021/07/17 06:06:27;;;;;;;32.28;17.30;;;18.10;99.90;;;;;;4995609;28;20497;-85
2021/07/17 06:08:53;;;;;;;31.85;18.13;;;18.00;99.90;;;;;;4978171;28;20389;-85
2021/07/17 06:11:19;;;;;;;35.60;18.33;;;18.00;99.90;;;;;;4978130;28;20027;-83
2021/07/17 06:13:44;;;;;;;34.88;19.38;;;18.10;99.90;;;;;;4978010;28;20031;-85
2021/07/17 06:16:10;;;;;;;24.30;17.20;;;18.00;99.90;;;;;;4978006;28;20022;-85
2021/07/17 06:18:36;;;;;;;29.23;17.35;;;18.00;99.90;;;;;;4977980;28;20121;-85
2021/07/17 06:21:01;;;;;;;31.85;18.55;;;18.10;99.90;;;;;;4977827;28;20089;-85
2021/07/17 06:23:27;;;;;;;33.10;18.10;;;18.10;99.90;;;;;;4995280;28;20030;-85
2021/07/17 06:25:53;;;;;;;27.52;16.95;;;18.10;99.90;;;;;;4977800;28;20023;-85
2021/07/17 06:28:19;;;;;;;32.17;18.05;;;18.10;99.90;;;;;;4977793;28;20027;-85
2021/07/17 06:30:44;;;;;;;35.15;18.35;;;18.10;99.90;;;;;;4977673;28;20504;-85
2021/07/17 06:33:10;;;;;;;34.28;19.33;;;18.10;99.90;;;;;;4977695;28;20034;-85
2021/07/17 06:35:36;;;;;;;28.73;16.95;;;18.10;99.90;;;;;;4978555;28;20037;-85
2021/07/17 06:38:02;;;;;;;34.85;18.00;;;18.30;99.90;;;;;;4995948;28;20050;-85
2021/07/17 06:40:28;;;;;;;28.65;16.33;;;18.30;99.90;;;;;;4977526;28;20076;-85
2021/07/17 06:42:54;;;;;;;35.75;17.13;;;18.30;99.90;;;;;;4977637;28;20113;-85
2021/07/17 06:45:20;;;;;;;35.42;18.35;;;18.30;99.90;;;;;;4993530;28;20038;-85
2021/07/17 06:47:47;;;;;;;31.65;17.80;;;18.30;99.90;;;;;;4977264;28;20023;-86
2021/07/17 06:50:14;;;;;;;32.05;16.45;;;18.50;99.90;;;;;;4977443;28;20030;-86
2021/07/17 06:52:40;;;;;;;28.08;16.63;;;18.50;99.90;;;;;;4977209;28;20026;-85
2021/07/17 06:55:08;;;;;;;38.63;17.90;;;18.60;99.90;;;;;;4994685;28;20038;-85
2021/07/17 06:57:36;;;;;;;34.65;17.15;;;18.60;99.90;;;;;;4977165;28;20109;-85
2021/07/17 07:00:10;;;;;;;27.00;16.63;;;18.60;99.90;;;;;;4977047;28;20026;-85
2021/07/17 07:02:36;;;;;;;25.60;16.85;;;18.60;99.90;;;;;;4994863;28;20053;-85
2021/07/17 07:05:03;;;;;;;26.60;17.38;;;18.60;99.90;;;;;;4976292;28;20056;-85
2021/07/17 07:07:29;;;;;;;37.95;19.20;;;18.60;99.90;;;;;;4994533;28;20401;-85
2021/07/17 07:09:54;;;;;;;33.22;18.13;;;18.60;99.90;;;;;;4977048;28;20049;-85
2021/07/17 07:12:20;;;;;;;32.83;18.10;;;18.60;99.90;;;;;;4994421;28;20081;-86
2021/07/17 07:14:46;;;;;;;33.60;17.80;;;18.60;99.90;;;;;;4976951;28;20113;-86
2021/07/17 07:17:11;;;;;;;28.00;17.52;;;18.60;99.90;;;;;;4976906;28;20022;-86
2021/07/17 07:19:37;;;;;;;31.42;18.27;;;18.60;99.90;;;;;;4993280;28;20393;-86
2021/07/17 07:22:04;;;;;;;29.23;17.77;;;18.50;99.90;;;;;;4977506;28;20029;-85
2021/07/17 07:24:30;;;;;;;28.48;16.92;;;18.50;99.90;;;;;;4994933;28;20026;-86
2021/07/17 07:26:57;;;;;;;32.33;18.05;;;18.50;99.90;;;;;;4977276;28;20030;-87
2021/07/17 07:29:24;;;;;;;36.97;18.60;;;18.50;99.90;;;;;;4994989;28;20031;-85
2021/07/17 07:31:53;;;;;;;29.98;18.75;;;18.40;99.90;;;;;;4977740;28;20543;-85
2021/07/17 07:34:20;;;;;;;30.52;19.88;;;18.30;99.90;;;;;;4977513;28;20026;-85
2021/07/17 07:36:50;;;;;;;30.67;17.33;;;18.30;99.90;;;;;;4977044;28;20054;-85
2021/07/17 07:39:16;;;;;;;28.48;17.52;;;18.40;99.90;;;;;;4977152;28;20120;-85
2021/07/17 07:41:42;;;;;;;38.67;18.92;;;18.40;99.90;;;;;;4977209;28;20022;-85
2021/07/17 07:44:08;;;;;;;26.27;18.38;;;18.50;99.90;;;;;;4977069;28;20105;-85
2021/07/17 07:46:34;;;;;;;28.60;17.95;;;18.50;99.90;;;;;;4994640;28;20445;-85
2021/07/17 07:49:02;;;;;;;28.95;18.05;;;18.50;99.90;;;;;;4993383;28;20478;-85
2021/07/17 07:51:28;;;;;;;24.85;18.08;;;18.50;99.90;;;;;;4977255;28;20033;-85
2021/07/17 07:53:54;;;;;;;27.77;17.77;;;18.60;99.90;;;;;;4977057;28;20080;-85
2021/07/17 07:56:19;;;;;;;24.23;15.93;;;18.60;99.90;;;;;;4977925;28;20025;-85
2021/07/17 07:58:45;;;;;;;30.75;17.73;;;18.80;99.90;;;;;;4977219;28;20030;-85
2021/07/17 08:01:11;;;;;;;29.33;17.00;;;18.80;99.90;;;;;;4994324;28;20027;-85
2021/07/17 08:03:37;;;;;;;25.42;16.23;;;18.80;99.90;;;;;;4977084;28;20023;-85
2021/07/17 08:06:02;;;;;;;30.27;16.35;;;18.70;99.90;;;;;;4977098;28;20097;-85
2021/07/17 08:08:28;;;;;;;27.52;15.88;;;18.70;99.90;;;;;;4976914;28;20029;-84
2021/07/17 08:10:54;;;;;;;30.45;18.00;;;18.70;99.90;;;;;;4993236;28;20027;-84
2021/07/17 08:13:20;;;;;;;26.50;17.42;;;18.80;99.90;;;;;;4977124;28;20030;-84
2021/07/17 08:15:46;;;;;;;29.98;18.05;;;18.70;99.90;;;;;;4978560;28;20031;-84
2021/07/17 08:18:11;;;;;;;30.13;18.27;;;18.60;99.90;;;;;;4980563;28;20401;-84
2021/07/17 08:20:40;;;;;;;31.17;17.30;;;18.70;99.90;;;;;;4996798;28;20030;-85
2021/07/17 08:23:06;;;;;;;37.13;18.50;;;18.50;99.90;;;;;;4980809;28;20037;-84
2021/07/17 08:25:32;;;;;;;31.75;17.70;;;18.60;99.90;;;;;;4980885;28;20026;-85
2021/07/17 08:27:57;;;;;;;25.13;15.73;;;18.50;99.90;;;;;;4980474;28;20500;-85
2021/07/17 08:30:23;;;;;;;29.08;17.65;;;18.60;99.90;;;;;;4980699;28;20034;-84
2021/07/17 08:32:49;;;;;;;27.80;18.15;;;18.80;99.90;;;;;;4980645;28;20375;-84
2021/07/17 08:35:15;;;;;;;30.63;16.65;;;18.90;99.90;;;;;;4997902;28;20124;-85
2021/07/17 08:37:40;;;;;;;33.72;18.23;;;19.00;99.90;;;;;;4977048;28;20054;-85
2021/07/17 08:40:07;;;;;;;26.75;16.70;;;19.10;99.90;;;;;;4977151;28;20463;-85
2021/07/17 08:42:36;;;;;;;33.53;19.42;;;19.10;99.90;;;;;;4977714;28;20019;-85
2021/07/17 08:45:04;;;;;;;29.60;17.40;;;19.00;99.90;;;;;;4977137;28;20030;-85
2021/07/17 08:47:35;;;;;;;28.38;17.48;;;19.20;99.90;;;;;;4977192;28;20019;-85
2021/07/17 08:50:03;;;;;;;28.23;16.77;;;19.40;99.90;;;;;;4978803;28;20050;-85
2021/07/17 08:52:31;;;;;;;31.77;17.05;;;19.40;99.90;;;;;;4978138;28;20042;-87
2021/07/17 08:55:03;;;;;;;29.83;17.38;;;19.30;99.90;;;;;;4978980;28;20522;-85
2021/07/17 08:57:32;;;;;;;27.95;16.23;;;19.30;99.90;;;;;;4977390;28;20557;-85
2021/07/17 08:59:57;;;;;;;32.13;17.20;;;19.40;99.90;;;;;;4976807;28;20065;-85
2021/07/17 09:02:24;;;;;;;29.10;16.10;;;19.50;99.90;;;;;;4976872;28;20054;-85
2021/07/17 09:04:49;;;;;;;31.13;15.23;;;19.60;99.90;;;;;;4976871;28;20028;-85
2021/07/17 09:07:15;;;;;;;30.92;17.38;;;19.70;99.90;;;;;;4976759;28;20027;-85
2021/07/17 09:09:41;;;;;;;24.10;15.43;;;19.70;99.90;;;;;;4977037;28;20117;-85
2021/07/17 09:12:23;;;;;;;23.60;14.80;;;19.80;99.90;;;;;;4960640;28;20097;-86
2021/07/17 09:14:50;;;;;;;22.38;14.65;;;19.90;99.90;;;;;;4976500;28;20367;-85
2021/07/17 09:17:27;;;;;;;22.00;14.05;;;19.80;99.90;;;;;;4976367;28;20027;-85
2021/07/17 09:19:58;;;;;;;21.33;13.13;;;19.70;99.90;;;;;;4976562;28;20077;-85
2021/07/17 09:22:35;;;;;;;23.58;13.13;;;19.80;99.90;;;;;;4976672;28;20038;-85
2021/07/17 09:25:07;;;;;;;27.13;13.77;;;19.90;99.90;;;;;;4976736;28;20034;-85
2021/07/17 09:27:32;;;;;;;27.02;13.25;;;20.00;99.90;;;;;;4975501;28;20019;-85
2021/07/17 09:29:58;;;;;;;21.45;12.65;;;19.90;99.90;;;;;;4977756;28;20034;-84
2021/07/17 09:32:24;;;;;;;20.73;13.65;;;20.00;99.90;;;;;;4976232;28;20433;-85
2021/07/17 09:34:49;;;;;;;25.55;14.07;;;19.90;99.90;;;;;;4977464;28;20030;-85
2021/07/17 09:37:22;;;;;;;26.13;14.13;;;19.80;99.90;;;;;;4989357;28;20506;-85
2021/07/17 09:39:52;;;;;;;23.67;12.90;;;19.70;99.90;;;;;;4979459;28;20069;-85
2021/07/17 09:42:20;;;;;;;28.42;14.00;;;19.80;99.90;;;;;;4996868;28;20140;-85
2021/07/17 09:44:53;;;;;;;26.95;13.55;;;19.70;99.90;;;;;;4979266;28;20486;-85
2021/07/17 09:47:26;;;;;;;22.23;13.32;;;19.70;99.90;;;;;;4979442;28;20073;-85
2021/07/17 09:50:15;;;;;;;21.80;13.25;;;19.70;99.90;;;;;;4995607;28;20064;-85
2021/07/17 09:52:43;;;;;;;25.00;12.80;;;19.70;99.90;;;;;;4979201;28;20026;-85
2021/07/17 09:55:12;;;;;;;22.33;13.57;;;19.70;99.90;;;;;;4996913;28;20037;-85
2021/07/17 09:57:39;;;;;;;26.05;14.90;;;19.80;99.90;;;;;;4979204;28;20559;-85
2021/07/17 10:00:11;;;;;;;24.25;14.77;;;19.70;99.90;;;;;;4979315;28;20026;-85
2021/07/17 10:02:39;;;;;;;25.73;13.55;;;19.60;99.90;;;;;;4996752;28;20081;-85
2021/07/17 10:05:06;;;;;;;21.63;13.55;;;19.60;99.90;;;;;;4978987;28;20033;-85
2021/07/17 10:07:31;;;;;;;22.23;13.15;;;19.80;99.90;;;;;;4996428;28;20022;-85
2021/07/17 10:09:57;;;;;;;24.02;13.40;;;20.00;99.90;;;;;;4996189;28;20034;-85
2021/07/17 10:12:37;;;;;;;24.08;13.65;;;20.00;99.90;;;;;;4979138;28;20026;-85
2021/07/17 10:15:08;;;;;;;21.67;13.27;;;19.90;99.90;;;;;;4979500;28;20125;-86
2021/07/17 10:17:44;;;;;;;28.38;13.55;;;19.80;99.90;;;;;;4996242;28;20057;-85
2021/07/17 10:20:13;;;;;;;21.48;13.43;;;19.70;99.90;;;;;;4978859;28;20026;-85
2021/07/17 10:22:39;;;;;;;26.20;12.98;;;19.70;99.90;;;;;;4979223;28;20145;-85
2021/07/17 10:25:11;;;;;;;21.17;13.85;;;19.70;99.90;;;;;;4997075;28;20105;-87
2021/07/17 10:27:37;;;;;;;21.98;14.25;;;19.70;99.90;;;;;;4997271;28;20386;-87
2021/07/17 10:30:08;;;;;;;26.45;14.32;;;19.60;99.90;;;;;;4980861;28;20013;-87
2021/07/17 10:32:34;;;;;;;25.52;13.23;;;19.60;99.90;;;;;;4981273;28;20030;-86
2021/07/17 10:35:00;;;;;;;20.80;13.07;;;19.60;99.90;;;;;;4979707;28;20026;-87
2021/07/17 10:37:34;;;;;;;20.98;14.27;;;19.80;99.90;;;;;;4975367;28;20099;-87
2021/07/17 10:40:13;;;;;;;21.40;14.05;;;19.80;99.90;;;;;;4977163;28;20043;-87
2021/07/17 10:42:45;;;;;;;26.30;14.23;;;20.00;99.90;;;;;;4975921;28;20022;-87
2021/07/17 10:45:12;;;;;;;21.40;12.77;;;20.20;99.90;;;;;;4976147;28;20019;-89
2021/07/17 10:47:41;;;;;;;18.75;12.52;;;20.30;99.90;;;;;;4977618;28;20049;-87
2021/07/17 10:50:12;;;;;;;22.13;12.48;;;20.50;99.90;;;;;;4976053;28;20038;-88
2021/07/17 10:52:40;;;;;;;21.80;12.77;;;20.60;99.90;;;;;;4975903;28;20030;-87
2021/07/17 10:55:29;;;;;;;19.00;12.85;;;20.80;99.90;;;;;;4977330;28;20027;-87
2021/07/17 10:58:00;;;;;;;25.65;13.00;;;20.70;99.90;;;;;;4975907;28;20478;-87
2021/07/17 11:00:45;;;;;;;22.83;13.35;;;20.50;99.90;;;;;;4977068;28;20027;-87
2021/07/17 11:03:29;;;;;;;19.80;13.38;;;20.30;99.90;;;;;;4976815;28;20061;-87
2021/07/17 11:05:55;;;;;;;23.60;11.93;;;20.20;99.90;;;;;;4983227;28;20022;-86
2021/07/17 11:08:30;;;;;;;19.00;12.27;;;20.20;99.90;;;;;;4989939;28;20023;-86
2021/07/17 11:10:57;;;;;;;21.65;12.95;;;20.10;99.90;;;;;;4981338;28;20466;-87
2021/07/17 11:13:36;;;;;;;22.35;14.23;;;20.10;99.90;;;;;;4976138;28;20074;-88
2021/07/17 11:16:03;;;;;;;21.35;13.10;;;20.00;99.90;;;;;;4976118;28;20490;-87
2021/07/17 11:18:37;;;;;;;22.50;12.48;;;20.10;99.90;;;;;;4975991;28;20034;-88
2021/07/17 11:21:06;;;;;;;22.90;13.05;;;20.20;99.90;;;;;;4976664;28;20031;-86
2021/07/17 11:23:38;;;;;;;20.75;12.20;;;20.30;99.90;;;;;;4975006;28;20493;-87
2021/07/17 11:26:12;;;;;;;20.00;13.15;;;20.30;99.90;;;;;;4974739;28;20034;-86
2021/07/17 11:29:05;;;;;;;17.88;11.23;;;20.50;99.90;;;;;;4974657;28;20031;-87
2021/07/17 11:31:36;;;;;;;16.42;11.73;;;20.80;99.90;;;;;;4975296;28;20046;-86
2021/07/17 11:34:14;;;;;;;18.85;12.55;;;21.00;99.90;;;;;;4974972;28;20031;-85
2021/07/17 11:36:49;;;;;;;22.23;11.60;;;21.20;99.90;;;;;;4981213;28;20050;-86
2021/07/17 11:39:18;;;;;;;18.10;11.52;;;21.50;99.90;;;;;;4995329;28;20026;-87
2021/07/17 11:41:45;;;;;;;19.17;11.73;;;21.40;99.90;;;;;;4978120;28;20029;-87
2021/07/17 11:44:10;;;;;;;19.55;12.20;;;21.10;99.90;;;;;;4978453;28;20371;-87
2021/07/17 11:46:51;;;;;;;18.08;11.43;;;21.10;99.90;;;;;;4978312;28;20038;-87
2021/07/17 11:49:16;;;;;;;17.38;11.45;;;21.10;99.90;;;;;;4995707;28;20101;-87
2021/07/17 11:51:51;;;;;;;22.75;11.70;;;21.30;99.90;;;;;;4993924;28;20057;-87
2021/07/17 11:54:28;;;;;;;23.80;16.80;;;21.40;99.90;;;;;;4978275;28;20018;-87
2021/07/17 11:57:02;;;;;;;18.52;11.73;;;21.40;99.90;;;;;;4978568;28;20038;-87
2021/07/17 11:59:28;;;;;;;21.77;11.55;;;21.40;99.90;;;;;;4978099;28;20081;-87
2021/07/17 12:02:08;;;;;;;24.60;12.13;;;21.40;99.90;;;;;;4978275;28;20054;-87
2021/07/17 12:04:40;;;;;;;20.38;11.80;;;21.30;99.90;;;;;;4978207;28;20027;-87
2021/07/17 12:07:10;;;;;;;17.92;12.05;;;21.30;99.90;;;;;;4978603;28;20034;-87
2021/07/17 12:09:45;;;;;;;17.33;12.43;;;21.10;99.90;;;;;;4978990;28;20025;-87
2021/07/17 12:12:20;;;;;;;21.80;12.52;;;20.90;99.90;;;;;;4978271;28;20026;-88
2021/07/17 12:14:52;;;;;;;15.70;11.35;;;21.10;99.90;;;;;;4977871;28;20022;-88
2021/07/17 12:17:22;;;;;;;19.75;11.13;;;21.50;99.90;;;;;;4977572;28;20092;-88
2021/07/17 12:20:03;;;;;;;18.88;10.82;;;21.80;99.90;;;;;;4995243;28;20053;-88
2021/07/17 12:22:29;;;;;;;22.35;12.38;;;21.90;99.90;;;;;;4977331;28;20504;-86
2021/07/17 12:25:16;;;;;;;15.52;11.30;;;21.70;99.90;;;;;;4978242;28;20053;-87
2021/07/17 12:28:11;;;;;;;15.43;10.48;;;21.50;99.90;;;;;;4978098;28;20025;-87
2021/07/17 12:30:40;;;;;;;;;;;21.40;99.90;;;;;;4983126;28;20038;-87